Time;durP1;ratioP1;P1;durP2;ratioP2;P2;SDS_P1;SDS_P2;PMS_P1;PMS_P2;Temp;Humidity;BMP_temperature;BMP_pressure;BME280_temperature;BME280_humidity;BME280_pressure;Samples;Min_cycle;Max_cycle;Signal;HPM_P1;HPM_P2
2023/08/22 00:02:18;;;;;;;10.90;5.38;;;;;;;24.25;62.55;101281.31;5092866;28;20024;-42
2023/08/22 00:04:44;;;;;;;14.35;5.05;;;;;;;24.06;63.12;101280.41;5093281;28;20028;-42
2023/08/22 00:07:10;;;;;;;13.25;5.70;;;;;;;24.08;63.08;101280.94;5093137;28;20490;-43
2023/08/22 00:09:36;;;;;;;9.77;5.45;;;;;;;23.90;63.72;101280.53;5092949;28;20028;-42
2023/08/22 00:12:03;;;;;;;8.98;4.93;;;;;;;23.71;64.39;101279.56;5093150;28;20057;-42
2023/08/22 00:14:29;;;;;;;9.93;4.70;;;;;;;23.86;64.93;101287.66;5093318;28;20093;-42
2023/08/22 00:16:56;;;;;;;10.82;5.50;;;;;;;24.06;64.41;101294.09;5093056;28;20023;-42
2023/08/22 00:19:22;;;;;;;11.23;5.10;;;;;;;24.23;63.05;101300.78;5092617;28;20020;-42
2023/08/22 00:21:49;;;;;;;8.77;4.32;;;;;;;24.22;63.14;101296.41;5093102;28;20263;-42
2023/08/22 00:24:15;;;;;;;7.90;4.65;;;;;;;24.19;63.05;101288.75;5093373;28;20471;-42
2023/08/22 00:26:41;;;;;;;9.20;5.10;;;;;;;24.16;63.26;101285.81;5093057;28;20024;-44
2023/08/22 00:29:08;;;;;;;9.15;5.15;;;;;;;24.13;63.61;101303.59;5092661;28;20028;-42
2023/08/22 00:31:34;;;;;;;10.30;5.18;;;;;;;23.96;63.77;101303.97;5093019;28;20031;-42
2023/08/22 00:34:02;;;;;;;10.45;5.20;;;;;;;23.78;64.60;101290.19;5092768;28;20020;-42
2023/08/22 00:36:29;;;;;;;9.93;5.05;;;;;;;23.82;64.79;101303.00;5086152;28;20146;-42
2023/08/22 00:38:56;;;;;;;8.82;4.80;;;;;;;23.59;65.47;101300.91;5092487;28;20020;-43
2023/08/22 00:41:22;;;;;;;12.05;5.30;;;;;;;23.49;66.43;101298.25;5092601;28;20024;-44
2023/08/22 00:43:48;;;;;;;11.95;5.20;;;;;;;23.45;66.06;101306.19;5092162;28;20040;-49
2023/08/22 00:46:15;;;;;;;10.75;5.85;;;;;;;23.38;66.91;101301.03;5084721;28;20028;-45
2023/08/22 00:48:42;;;;;;;12.52;5.18;;;;;;;23.33;66.28;101311.97;5071404;28;20024;-44
2023/08/22 00:51:08;;;;;;;9.35;5.18;;;;;;;23.23;67.14;101303.81;5077021;28;20127;-46
2023/08/22 00:53:35;;;;;;;11.35;5.47;;;;;;;23.10;67.70;101307.16;5090836;28;20028;-48
2023/08/22 00:56:01;;;;;;;11.95;5.13;;;;;;;22.98;68.38;101310.19;5092189;28;20488;-46
2023/08/22 00:58:27;;;;;;;9.30;5.32;;;;;;;22.97;68.56;101307.72;5091835;28;20082;-44
2023/08/22 01:00:53;;;;;;;8.75;5.40;;;;;;;23.02;68.51;101307.72;5090965;28;20052;-44
2023/08/22 01:03:20;;;;;;;7.75;5.38;;;;;;;23.09;68.21;101305.50;5090753;28;20031;-48
2023/08/22 01:05:53;;;;;;;9.50;5.68;;;;;;;23.09;68.65;101295.41;5072028;28;20509;-46
2023/08/22 01:08:25;;;;;;;9.50;5.32;;;;;;;23.09;68.58;101302.78;5071406;28;20124;-45
2023/08/22 01:10:56;;;;;;;12.68;5.93;;;;;;;22.98;68.77;101304.72;5071592;28;20118;-46
2023/08/22 01:13:31;;;;;;;9.50;5.45;;;;;;;22.91;68.80;101309.66;5085150;28;20546;-44
2023/08/22 01:15:58;;;;;;;10.20;5.47;;;;;;;22.77;69.87;101312.13;5081213;28;20032;-47
2023/08/22 01:18:27;;;;;;;11.27;6.38;;;;;;;22.76;70.35;101296.81;5091468;28;20020;-45
2023/08/22 01:20:58;;;;;;;11.02;6.15;;;;;;;22.89;69.31;101303.66;5092362;28;20486;-44
2023/08/22 01:23:24;;;;;;;9.27;5.95;;;;;;;22.77;69.63;101297.66;5091138;28;20024;-44
2023/08/22 01:25:50;;;;;;;14.90;6.13;;;;;;;22.66;70.05;101291.41;5086307;28;20028;-44
2023/08/22 01:28:36;;;;;;;9.80;5.28;;;;;;;22.47;71.25;101296.59;5086317;28;20050;-45
2023/08/22 01:31:17;;;;;;;14.10;6.63;;;;;;;22.31;71.94;101297.72;5112405;28;20052;-44
2023/08/22 01:33:57;;;;;;;11.70;6.03;;;;;;;22.17;72.36;101302.91;5087162;28;21887;-44
2023/08/22 01:36:25;;;;;;;11.23;6.13;;;;;;;22.13;72.37;101296.34;5089525;28;20486;-43
2023/08/22 01:38:53;;;;;;;11.13;5.95;;;;;;;22.02;73.01;101303.66;5105361;28;20384;-47
2023/08/22 01:41:20;;;;;;;11.05;5.68;;;;;;;21.99;73.23;101314.31;5111256;28;20027;-44
2023/08/22 01:43:49;;;;;;;11.57;6.20;;;;;;;21.82;74.18;101309.09;5080253;28;20490;-46
2023/08/22 01:46:15;;;;;;;16.23;6.90;;;;;;;21.72;74.59;101314.53;5091613;28;20078;-46
2023/08/22 01:48:41;;;;;;;9.95;6.55;;;;;;;21.63;75.29;101310.69;5091212;28;20020;-44
2023/08/22 01:51:08;;;;;;;12.32;6.43;;;;;;;21.49;75.65;101308.47;5091375;28;20089;-44
2023/08/22 01:53:34;;;;;;;13.75;6.65;;;;;;;21.33;75.99;101307.59;5091674;28;20050;-46
2023/08/22 01:56:01;;;;;;;9.82;6.25;;;;;;;21.23;77.00;101302.06;5091904;28;20028;-46
2023/08/22 01:58:27;;;;;;;12.02;5.97;;;;;;;21.21;76.86;101309.72;5082302;28;20021;-43
2023/08/22 02:00:54;;;;;;;11.00;6.47;;;;;;;21.17;76.99;101305.06;5085587;28;20024;-44
2023/08/22 02:03:21;;;;;;;12.40;6.72;;;;;;;21.22;76.98;101311.34;5074701;28;20055;-46
2023/08/22 02:05:47;;;;;;;15.38;6.55;;;;;;;21.11;77.43;101317.81;5093508;28;20039;-46
2023/08/22 02:08:14;;;;;;;12.60;7.07;;;;;;;21.15;77.39;101321.63;5111638;28;20027;-44
2023/08/22 02:10:41;;;;;;;13.27;6.55;;;;;;;21.08;77.44;101321.06;5093430;28;20398;-46
2023/08/22 02:13:07;;;;;;;14.90;6.93;;;;;;;21.05;77.70;101327.03;5091398;28;20084;-45
2023/08/22 02:15:33;;;;;;;16.90;7.13;;;;;;;20.92;78.33;101316.59;5091440;28;20051;-45
2023/08/22 02:17:59;;;;;;;13.35;6.50;;;;;;;20.87;78.99;101322.03;5091366;28;20032;-43
2023/08/22 02:20:26;;;;;;;12.02;7.22;;;;;;;20.89;79.06;101319.88;5090839;28;20430;-46
2023/08/22 02:22:53;;;;;;;14.05;7.05;;;;;;;20.82;79.75;101323.66;5091447;28;20024;-45
2023/08/22 02:25:19;;;;;;;15.32;7.38;;;;;;;20.75;79.95;101327.66;5095973;28;20024;-46
2023/08/22 02:27:46;;;;;;;16.42;7.70;;;;;;;20.70;80.12;101328.44;5094999;28;20129;-47
2023/08/22 02:30:12;;;;;;;13.60;7.25;;;;;;;20.66;80.44;101332.78;5093006;28;20016;-46
2023/08/22 02:32:39;;;;;;;15.48;7.68;;;;;;;20.63;80.61;101330.56;5091432;28;20020;-43
2023/08/22 02:35:06;;;;;;;15.90;7.15;;;;;;;20.71;80.12;101332.81;5092899;28;20036;-46
2023/08/22 02:37:34;;;;;;;16.85;7.75;;;;;;;20.63;80.57;101325.13;5094483;28;20054;-44
2023/08/22 02:40:00;;;;;;;14.43;7.65;;;;;;;20.51;80.96;101328.03;5094964;28;20028;-47
2023/08/22 02:42:26;;;;;;;20.15;7.25;;;;;;;20.48;81.44;101335.88;5095017;28;20103;-43
2023/08/22 02:44:53;;;;;;;11.93;6.90;;;;;;;20.46;81.15;101332.63;5088996;28;20486;-46
2023/08/22 02:47:19;;;;;;;14.52;7.15;;;;;;;20.42;81.75;101339.63;5094607;28;20154;-46
2023/08/22 02:49:45;;;;;;;12.02;7.32;;;;;;;20.31;82.59;101339.53;5091253;28;20051;-45
2023/08/22 02:52:12;;;;;;;19.67;8.05;;;;;;;20.22;83.02;101351.16;5094972;28;20338;-45
2023/08/22 02:54:38;;;;;;;15.27;6.55;;;;;;;20.23;82.66;101331.84;5109549;28;20115;-46
2023/08/22 02:57:04;;;;;;;18.95;7.00;;;;;;;20.25;83.16;101335.13;5100875;28;20128;-44
2023/08/22 02:59:30;;;;;;;14.18;6.20;;;;;;;20.27;82.80;101346.59;5090056;28;20501;-44
2023/08/22 03:01:56;;;;;;;12.70;7.07;;;;;;;20.19;83.76;101347.03;5094680;28;20040;-44
2023/08/22 03:04:23;;;;;;;17.13;6.63;;;;;;;20.34;82.71;101353.69;5094579;28;20490;-46
2023/08/22 03:06:49;;;;;;;14.98;6.85;;;;;;;20.16;84.10;101346.75;5094544;28;20543;-45
2023/08/22 03:09:17;;;;;;;14.90;7.28;;;;;;;20.18;83.51;101337.25;5093419;28;20021;-43
2023/08/22 03:11:43;;;;;;;15.63;6.60;;;;;;;20.24;83.52;101344.38;5084292;28;20455;-44
2023/08/22 03:14:09;;;;;;;13.85;6.45;;;;;;;20.31;82.60;101341.44;5114626;28;20415;-45
2023/08/22 03:16:35;;;;;;;12.35;6.63;;;;;;;20.19;83.34;101352.47;5103778;28;20455;-44
2023/08/22 03:19:01;;;;;;;12.93;6.63;;;;;;;20.28;83.73;101353.66;5093582;28;20382;-43
2023/08/22 03:21:28;;;;;;;13.98;7.13;;;;;;;20.34;82.98;101359.13;5097790;28;20401;-44
2023/08/22 03:23:54;;;;;;;13.07;6.70;;;;;;;20.36;83.03;101363.22;5079907;28;20020;-44
2023/08/22 03:26:20;;;;;;;17.92;6.90;;;;;;;20.36;83.07;101362.41;5099094;28;20024;-46
2023/08/22 03:28:46;;;;;;;14.98;6.20;;;;;;;20.25;83.25;101362.31;5093962;28;20019;-45
2023/08/22 03:31:13;;;;;;;12.80;7.25;;;;;;;20.22;83.81;101368.28;5092925;28;20074;-44
2023/08/22 03:33:39;;;;;;;12.80;7.25;;;;;;;20.23;83.65;101361.75;5093898;28;20032;-45
2023/08/22 03:36:06;;;;;;;20.20;8.32;;;;;;;20.25;84.03;101366.94;5093806;28;20060;-46
2023/08/22 03:38:32;;;;;;;18.00;8.35;;;;;;;20.24;84.19;101371.56;5093417;28;20024;-43
2023/08/22 03:40:58;;;;;;;17.80;9.07;;;;;;;20.28;83.65;101371.88;5092489;28;20039;-45
2023/08/22 03:43:24;;;;;;;18.95;8.73;;;;;;;20.27;83.96;101368.34;5093187;28;20024;-44
2023/08/22 03:45:51;;;;;;;22.52;9.57;;;;;;;20.23;84.00;101374.53;5092785;28;20054;-46
2023/08/22 03:48:17;;;;;;;20.00;9.48;;;;;;;20.19;83.94;101373.41;5093698;28;20102;-44
2023/08/22 03:50:44;;;;;;;26.25;10.40;;;;;;;20.26;83.55;101371.28;5093229;28;20040;-43
2023/08/22 03:53:11;;;;;;;19.20;8.27;;;;;;;20.16;83.74;101374.75;5093971;28;20032;-43
2023/08/22 03:55:38;;;;;;;16.60;8.80;;;;;;;20.08;84.32;101377.91;5092523;28;20028;-44
2023/08/22 03:58:04;;;;;;;19.80;8.68;;;;;;;20.09;84.23;101379.56;5093328;28;20016;-44
2023/08/22 04:00:31;;;;;;;22.27;8.60;;;;;;;20.09;83.75;101381.44;5093810;28;20437;-47
2023/08/22 04:02:58;;;;;;;17.25;8.07;;;;;;;20.11;83.87;101382.84;5093486;28;20036;-44
2023/08/22 04:05:25;;;;;;;20.70;8.63;;;;;;;20.00;84.02;101383.81;5093351;28;20108;-44
2023/08/22 04:07:52;;;;;;;17.65;8.73;;;;;;;20.02;83.87;101389.81;5093205;28;20048;-44
2023/08/22 04:10:19;;;;;;;27.05;8.73;;;;;;;19.99;84.09;101399.31;5093481;28;20062;-45
2023/08/22 04:12:46;;;;;;;20.38;8.88;;;;;;;19.99;84.30;101391.16;5093345;28;20387;-45
2023/08/22 04:15:15;;;;;;;22.88;8.52;;;;;;;20.07;83.59;101389.03;5091309;28;20036;-47
2023/08/22 04:17:44;;;;;;;20.13;8.45;;;;;;;19.86;84.39;101393.44;5093157;28;20493;-45
2023/08/22 04:20:11;;;;;;;19.38;7.93;;;;;;;19.91;84.21;101393.50;5092006;28;20471;-45
2023/08/22 04:22:40;;;;;;;16.35;7.68;;;;;;;19.93;83.94;101396.75;5093302;28;20401;-47
2023/08/22 04:25:07;;;;;;;18.92;7.60;;;;;;;19.99;83.69;101393.06;5092937;28;20053;-45
2023/08/22 04:27:34;;;;;;;17.98;8.30;;;;;;;19.89;83.97;101392.94;5092750;28;20024;-44
2023/08/22 04:30:01;;;;;;;17.08;7.78;;;;;;;19.92;83.64;101401.38;5091400;28;20071;-46
2023/08/22 04:32:27;;;;;;;18.77;8.45;;;;;;;19.89;83.48;101396.47;5093055;28;20024;-46
2023/08/22 04:34:54;;;;;;;15.95;7.57;;;;;;;19.92;83.68;101395.94;5091901;28;20486;-46
2023/08/22 04:37:21;;;;;;;21.08;8.30;;;;;;;19.88;83.61;101394.03;5091100;28;20115;-45
2023/08/22 04:39:47;;;;;;;14.50;8.10;;;;;;;19.89;84.04;101393.75;5092709;28;20478;-44
2023/08/22 04:42:13;;;;;;;17.48;8.98;;;;;;;19.77;84.34;101391.19;5092751;28;20036;-44
2023/08/22 04:44:39;;;;;;;17.23;8.55;;;;;;;19.74;84.58;101399.81;5092998;28;20093;-47
2023/08/22 04:47:06;;;;;;;17.58;7.95;;;;;;;19.77;84.90;101401.22;5093154;28;20030;-44
2023/08/22 04:49:32;;;;;;;21.23;9.02;;;;;;;19.87;84.25;101403.22;5092676;28;20421;-47
2023/08/22 04:51:59;;;;;;;15.90;7.95;;;;;;;19.84;84.71;101409.19;5093293;28;20056;-46
2023/08/22 04:54:25;;;;;;;24.08;9.45;;;;;;;19.88;84.30;101404.88;5091370;28;20032;-47
2023/08/22 04:56:51;;;;;;;19.75;9.00;;;;;;;19.78;84.58;101395.53;5092646;28;20023;-45
2023/08/22 04:59:17;;;;;;;23.48;8.73;;;;;;;19.87;84.20;101398.59;5092210;28;20024;-46
2023/08/22 05:01:44;;;;;;;20.80;9.18;;;;;;;19.91;84.22;101405.19;5092393;28;20020;-46
2023/08/22 05:04:10;;;;;;;19.60;8.98;;;;;;;19.90;84.06;101403.53;5091509;28;20103;-44
2023/08/22 05:06:36;;;;;;;17.80;8.85;;;;;;;19.83;84.42;101399.38;5092152;28;20024;-45
2023/08/22 05:09:03;;;;;;;21.38;8.05;;;;;;;19.90;84.54;101400.00;5091124;28;20493;-45
2023/08/22 05:11:29;;;;;;;15.95;7.38;;;;;;;19.89;84.29;101396.47;5092520;28;20032;-45
2023/08/22 05:13:55;;;;;;;19.52;8.18;;;;;;;19.85;84.51;101395.31;5092066;28;20024;-44
2023/08/22 05:16:21;;;;;;;14.75;8.00;;;;;;;19.87;84.03;101395.06;5092089;28;20082;-45
2023/08/22 05:18:48;;;;;;;17.20;7.75;;;;;;;19.93;83.99;101399.47;5092138;28;20052;-43
2023/08/22 05:21:14;;;;;;;19.58;7.75;;;;;;;19.82;84.05;101400.44;5092022;28;20101;-46
2023/08/22 05:23:40;;;;;;;16.50;7.75;;;;;;;19.80;84.35;101389.03;5089119;28;20425;-46
2023/08/22 05:26:06;;;;;;;13.85;7.35;;;;;;;19.73;84.51;101387.31;5071026;28;20494;-43
2023/08/22 05:28:33;;;;;;;18.20;7.70;;;;;;;19.78;84.07;101384.66;5089080;28;20035;-44
2023/08/22 05:30:59;;;;;;;18.17;8.50;;;;;;;19.85;83.54;101386.38;5071571;28;20020;-44
2023/08/22 05:33:25;;;;;;;14.02;7.20;;;;;;;19.79;84.36;101385.47;5071350;28;20020;-45
2023/08/22 05:35:51;;;;;;;18.50;7.68;;;;;;;19.79;83.64;101380.06;5071208;28;20036;-44
2023/08/22 05:38:18;;;;;;;15.15;7.57;;;;;;;19.76;84.01;101391.41;5071243;28;20070;-46
2023/08/22 05:40:44;;;;;;;20.88;7.65;;;;;;;19.66;84.18;101386.69;5076171;28;20393;-44
2023/08/22 05:43:10;;;;;;;21.02;8.25;;;;;;;19.59;84.77;101380.63;5080805;28;20024;-44
2023/08/22 05:45:36;;;;;;;13.73;7.65;;;;;;;19.62;85.07;101379.31;5090961;28;20119;-47
2023/08/22 05:48:03;;;;;;;16.40;7.75;;;;;;;19.70;84.30;101382.38;5091393;28;20051;-44
2023/08/22 05:50:29;;;;;;;18.05;8.02;;;;;;;19.74;83.47;101380.81;5090237;28;20051;-46
2023/08/22 05:52:55;;;;;;;14.05;7.85;;;;;;;19.67;83.93;101382.91;5091197;28;20190;-47
2023/08/22 05:55:22;;;;;;;18.60;7.50;;;;;;;19.87;82.88;101390.44;5091407;28;20538;-46
2023/08/22 05:57:48;;;;;;;13.95;7.40;;;;;;;19.80;83.68;101394.44;5089931;28;20036;-46
2023/08/22 06:00:15;;;;;;;16.15;7.82;;;;;;;19.71;83.74;101388.63;5092111;28;20059;-44
2023/08/22 06:02:41;;;;;;;15.93;7.63;;;;;;;19.71;84.20;101389.47;5094340;28;20058;-46
2023/08/22 06:05:07;;;;;;;14.68;7.47;;;;;;;19.68;84.07;101392.69;5095649;28;20028;-45
2023/08/22 06:07:34;;;;;;;12.85;7.38;;;;;;;19.85;83.77;101394.50;5094403;28;20027;-46
2023/08/22 06:10:00;;;;;;;17.67;6.88;;;;;;;19.83;83.94;101391.25;5095221;28;20106;-44
2023/08/22 06:12:27;;;;;;;15.30;7.20;;;;;;;19.76;83.88;101394.94;5090497;28;20081;-45
2023/08/22 06:14:53;;;;;;;14.18;7.40;;;;;;;19.92;83.32;101406.81;5095502;28;20024;-45
2023/08/22 06:17:19;;;;;;;20.20;8.52;;;;;;;19.75;83.92;101404.16;5094191;28;20039;-46
2023/08/22 06:19:49;;;;;;;16.88;8.13;;;;;;;19.74;83.89;101413.41;5074794;28;20029;-44
2023/08/22 06:22:15;;;;;;;16.95;7.70;;;;;;;19.79;83.35;101407.22;5088361;28;20060;-46
2023/08/22 06:24:41;;;;;;;16.48;7.60;;;;;;;19.81;83.30;101407.78;5094851;28;20027;-44
2023/08/22 06:27:07;;;;;;;18.15;8.23;;;;;;;19.80;83.13;101418.91;5093247;28;20040;-44
2023/08/22 06:29:34;;;;;;;16.85;7.43;;;;;;;19.83;82.82;101419.22;5095000;28;20031;-47
2023/08/22 06:32:00;;;;;;;11.52;6.88;;;;;;;19.61;83.46;101419.22;5093882;28;20034;-46
2023/08/22 06:34:27;;;;;;;18.75;8.25;;;;;;;19.68;83.47;101416.31;5094513;28;20062;-44
2023/08/22 06:36:53;;;;;;;16.27;7.20;;;;;;;19.67;83.17;101415.50;5094133;28;20482;-46
2023/08/22 06:39:19;;;;;;;20.17;8.57;;;;;;;19.71;83.83;101422.06;5094730;28;20055;-47
2023/08/22 06:41:45;;;;;;;16.00;8.23;;;;;;;19.62;83.66;101417.31;5093705;28;20063;-45
2023/08/22 06:44:12;;;;;;;19.30;8.30;;;;;;;19.42;84.94;101417.84;5093804;28;20083;-43
2023/08/22 06:46:38;;;;;;;17.85;8.38;;;;;;;19.47;84.42;101417.91;5094496;28;20024;-45
2023/08/22 06:49:04;;;;;;;15.52;7.72;;;;;;;19.42;84.35;101418.66;5093521;28;20024;-47
2023/08/22 06:51:33;;;;;;;15.68;7.43;;;;;;;19.41;84.61;101424.34;5093625;28;20413;-44
2023/08/22 06:53:59;;;;;;;14.50;7.07;;;;;;;19.52;84.32;101420.69;5094501;28;20056;-47
2023/08/22 06:56:26;;;;;;;17.75;7.82;;;;;;;19.52;84.06;101429.66;5091146;28;20042;-44
2023/08/22 06:58:52;;;;;;;14.48;6.68;;;;;;;19.57;84.29;101428.09;5093476;28;20039;-43
2023/08/22 07:01:19;;;;;;;11.40;6.78;;;;;;;19.54;84.13;101432.09;5093075;28;20371;-45
2023/08/22 07:03:45;;;;;;;15.63;7.72;;;;;;;19.49;83.91;101435.59;5094350;28;20020;-46
2023/08/22 07:06:11;;;;;;;17.27;7.78;;;;;;;19.52;84.43;101435.09;5094165;28;20081;-46
2023/08/22 07:08:38;;;;;;;18.15;8.30;;;;;;;19.53;83.82;101427.75;5093870;28;20112;-46
2023/08/22 07:11:04;;;;;;;17.13;7.80;;;;;;;19.44;84.10;101430.09;5093015;28;20046;-44
2023/08/22 07:13:32;;;;;;;14.75;8.32;;;;;;;19.50;84.20;101429.09;5091976;28;20097;-45
2023/08/22 07:15:59;;;;;;;22.83;7.72;;;;;;;19.50;83.64;101431.00;5093075;28;20107;-45
2023/08/22 07:18:28;;;;;;;12.75;7.65;;;;;;;19.45;83.76;101434.44;5084090;28;20021;-44
2023/08/22 07:20:54;;;;;;;19.70;7.63;;;;;;;19.47;83.59;101431.47;5078988;28;20050;-45
2023/08/22 07:23:22;;;;;;;14.98;8.27;;;;;;;19.36;84.19;101430.50;5094239;28;20016;-44
2023/08/22 07:25:51;;;;;;;17.02;7.50;;;;;;;19.39;84.32;101429.22;5093273;28;20397;-45
2023/08/22 07:28:18;;;;;;;17.30;7.18;;;;;;;19.31;84.24;101427.72;5093486;28;20056;-44
2023/08/22 07:30:48;;;;;;;16.80;7.85;;;;;;;19.41;83.76;101427.88;5093003;28;20056;-44
2023/08/22 07:33:15;;;;;;;16.75;8.18;;;;;;;19.36;83.63;101421.56;5091581;28;20481;-43
2023/08/22 07:35:42;;;;;;;19.65;8.43;;;;;;;19.40;83.79;101437.09;5092850;28;20537;-46
2023/08/22 07:38:08;;;;;;;12.80;7.40;;;;;;;19.38;83.69;101428.38;5092444;28;20389;-45
2023/08/22 07:40:38;;;;;;;15.38;7.88;;;;;;;19.31;83.49;101435.88;5092625;28;20485;-43
2023/08/22 07:43:04;;;;;;;20.10;8.63;;;;;;;19.29;83.83;101434.50;5093735;28;20028;-44
2023/08/22 07:45:31;;;;;;;17.60;8.35;;;;;;;19.28;84.23;101428.25;5093243;28;20036;-44
2023/08/22 07:47:57;;;;;;;15.40;7.47;;;;;;;19.31;83.46;101424.19;5093385;28;20019;-47
2023/08/22 07:50:23;;;;;;;15.98;7.45;;;;;;;19.29;83.49;101429.06;5093027;28;20047;-44
2023/08/22 07:52:50;;;;;;;18.77;7.78;;;;;;;19.31;83.65;101426.91;5093198;28;20107;-43
2023/08/22 07:55:16;;;;;;;15.25;6.65;;;;;;;19.28;83.78;101428.25;5092259;28;20051;-44
2023/08/22 07:57:42;;;;;;;17.30;8.18;;;;;;;19.45;82.93;101418.16;5092125;28;20028;-44
2023/08/22 08:00:13;;;;;;;19.05;7.07;;;;;;;19.44;82.54;101424.66;5093196;28;20027;-45
2023/08/22 08:02:39;;;;;;;16.83;7.43;;;;;;;19.48;82.88;101423.06;5093289;28;20028;-45
2023/08/22 08:05:06;;;;;;;14.65;8.10;;;;;;;19.35;82.71;101428.06;5093044;28;20103;-43
2023/08/22 08:07:34;;;;;;;13.98;6.85;;;;;;;19.30;83.31;101420.66;5092936;28;20035;-44
2023/08/22 08:10:00;;;;;;;12.63;6.53;;;;;;;19.29;83.06;101420.91;5092984;28;20036;-44
2023/08/22 08:12:27;;;;;;;17.52;7.38;;;;;;;19.44;82.47;101426.56;5091989;28;20084;-47
2023/08/22 08:14:53;;;;;;;11.13;5.95;;;;;;;19.35;82.37;101417.19;5092808;28;20028;-45
2023/08/22 08:17:20;;;;;;;13.20;6.97;;;;;;;19.42;82.19;101420.53;5090361;28;20401;-46
2023/08/22 08:19:46;;;;;;;13.65;6.78;;;;;;;19.29;82.32;101418.19;5072732;28;20509;-46
2023/08/22 08:22:12;;;;;;;15.43;7.68;;;;;;;19.24;82.64;101405.38;5072519;28;20131;-44
2023/08/22 08:24:39;;;;;;;15.10;7.93;;;;;;;19.35;82.06;101411.78;5087016;28;20040;-44
2023/08/22 08:27:05;;;;;;;13.80;7.50;;;;;;;19.19;82.54;101403.41;5091599;28;20027;-46
2023/08/22 08:29:32;;;;;;;18.15;7.50;;;;;;;19.10;82.59;101415.78;5092587;28;20065;-44
2023/08/22 08:31:58;;;;;;;11.60;7.03;;;;;;;19.07;82.96;101410.84;5092765;28;20024;-43
2023/08/22 08:34:28;;;;;;;10.50;6.43;;;;;;;19.05;82.71;101412.97;5092211;28;20130;-43
2023/08/22 08:36:54;;;;;;;11.23;6.15;;;;;;;19.06;82.50;101411.91;5089757;28;20032;-45
2023/08/22 08:39:20;;;;;;;13.68;6.78;;;;;;;19.12;82.27;101410.91;5092277;28;20102;-44
2023/08/22 08:41:59;;;;;;;10.57;6.72;;;;;;;19.11;82.22;101412.00;5092398;28;20028;-44
2023/08/22 08:44:27;;;;;;;12.32;7.38;;;;;;;19.03;82.56;101411.56;5092245;28;20031;-44
2023/08/22 08:46:54;;;;;;;14.90;7.50;;;;;;;19.13;82.34;101403.59;5092006;28;20070;-45
2023/08/22 08:49:20;;;;;;;12.07;6.78;;;;;;;19.02;82.76;101408.03;5092053;28;20458;-44
2023/08/22 08:51:48;;;;;;;10.90;6.68;;;;;;;19.02;82.98;101408.03;5092088;28;20115;-44
2023/08/22 08:54:15;;;;;;;9.48;6.22;;;;;;;19.02;82.75;101412.66;5092032;28;20024;-46
2023/08/22 08:56:41;;;;;;;16.10;6.97;;;;;;;19.02;82.71;101407.22;5091197;28;20504;-44
2023/08/22 08:59:08;;;;;;;14.68;6.63;;;;;;;19.06;83.21;101409.19;5090960;28;20035;-47
2023/08/22 09:01:35;;;;;;;10.70;6.97;;;;;;;19.02;82.98;101402.63;5091782;28;20073;-43
2023/08/22 09:04:02;;;;;;;16.45;7.32;;;;;;;19.13;82.39;101400.88;5091152;28;20028;-46
2023/08/22 09:06:28;;;;;;;11.52;7.13;;;;;;;19.09;82.85;101408.69;5091748;28;20032;-44
2023/08/22 09:09:07;;;;;;;11.35;6.85;;;;;;;19.00;83.07;101407.47;5090940;28;20035;-44
2023/08/22 09:11:33;;;;;;;11.02;6.30;;;;;;;18.98;82.86;101404.16;5091183;28;20021;-44
2023/08/22 09:14:00;;;;;;;10.60;6.15;;;;;;;19.03;82.83;101406.16;5088478;28;20031;-46
2023/08/22 09:16:27;;;;;;;10.52;6.50;;;;;;;19.08;82.32;101412.47;5091180;28;20055;-44
2023/08/22 09:19:01;;;;;;;12.23;5.63;;;;;;;19.03;82.61;101411.56;5081376;28;20031;-43
2023/08/22 09:21:27;;;;;;;8.82;5.43;;;;;;;19.00;82.96;101407.47;5091697;28;20071;-44
2023/08/22 09:24:05;;;;;;;9.23;6.03;;;;;;;19.02;82.83;101408.03;5090717;28;20386;-43
2023/08/22 09:26:32;;;;;;;9.82;6.55;;;;;;;19.13;82.13;101398.97;5091442;28;20110;-46
2023/08/22 09:29:03;;;;;;;12.25;7.32;;;;;;;19.12;82.20;101400.06;5089793;28;20119;-44
2023/08/22 09:31:29;;;;;;;8.10;5.90;;;;;;;19.07;82.46;101405.41;5090864;28;20027;-44
2023/08/22 09:33:55;;;;;;;12.15;6.57;;;;;;;19.11;82.42;101398.41;5091741;28;20032;-47
2023/08/22 09:36:22;;;;;;;16.38;7.13;;;;;;;19.10;82.49;101394.06;5089717;28;20024;-44
2023/08/22 09:38:54;;;;;;;11.88;6.55;;;;;;;19.06;83.03;101400.25;5091429;28;20089;-47
2023/08/22 09:41:28;;;;;;;8.60;5.47;;;;;;;19.08;82.83;101393.47;5092703;28;20378;-44
2023/08/22 09:44:02;;;;;;;7.97;5.57;;;;;;;19.09;83.01;101392.41;5089963;28;20501;-44
2023/08/22 09:46:31;;;;;;;11.30;6.28;;;;;;;19.09;83.13;101394.28;5091604;28;20063;-45
2023/08/22 09:49:01;;;;;;;12.75;7.32;;;;;;;19.14;83.18;101394.38;5090483;28;20076;-44
2023/08/22 09:51:28;;;;;;;10.40;6.47;;;;;;;19.16;82.94;101390.34;5091314;28;20383;-44
2023/08/22 09:54:03;;;;;;;10.02;6.30;;;;;;;19.19;83.20;101389.84;5087863;28;20433;-47
2023/08/22 09:56:32;;;;;;;11.75;6.75;;;;;;;19.22;82.86;101383.09;5091243;28;20406;-47
2023/08/22 09:59:01;;;;;;;8.88;5.60;;;;;;;19.23;83.00;101388.28;5090114;28;20166;-47
2023/08/22 10:01:29;;;;;;;10.85;5.47;;;;;;;19.22;82.65;101389.34;5082600;28;20032;-43
2023/08/22 10:03:59;;;;;;;10.93;6.07;;;;;;;19.23;82.67;101393.69;5091498;28;20173;-43
2023/08/22 10:06:30;;;;;;;9.45;5.53;;;;;;;19.25;82.91;101385.31;5084484;28;20036;-44
2023/08/22 10:08:57;;;;;;;14.80;7.18;;;;;;;19.30;82.44;101377.22;5077398;28;20110;-45
2023/08/22 10:11:27;;;;;;;13.82;6.72;;;;;;;19.37;82.40;101382.47;5076337;28;20029;-45
2023/08/22 10:13:54;;;;;;;10.30;6.28;;;;;;;19.32;82.19;101377.81;5074596;28;20115;-44
2023/08/22 10:16:20;;;;;;;12.85;7.32;;;;;;;19.45;82.22;101379.34;5088016;28;20472;-47
2023/08/22 10:18:47;;;;;;;16.35;7.57;;;;;;;19.62;81.35;101377.41;5084828;28;20032;-43
2023/08/22 10:21:14;;;;;;;11.80;7.65;;;;;;;19.48;81.54;101378.81;5086013;28;20035;-43
2023/08/22 10:23:52;;;;;;;14.93;6.93;;;;;;;19.28;82.75;101384.81;5083718;28;20152;-44
2023/08/22 10:26:25;;;;;;;13.35;7.80;;;;;;;19.20;83.28;101383.34;5070289;28;20111;-44
2023/08/22 10:29:13;;;;;;;15.85;8.32;;;;;;;19.24;83.36;101389.09;5091100;28;20028;-46
2023/08/22 10:32:01;;;;;;;18.45;7.75;;;;;;;19.37;83.03;101380.56;5080532;28;20038;-44
2023/08/22 10:34:40;;;;;;;15.80;7.50;;;;;;;19.22;83.64;101385.81;5080624;28;20034;-44
2023/08/22 10:37:16;;;;;;;18.55;7.75;;;;;;;19.38;83.28;101382.25;5089518;28;20028;-44
2023/08/22 10:39:47;;;;;;;14.50;8.32;;;;;;;19.33;82.86;101382.16;5087584;28;20032;-43
2023/08/22 10:42:13;;;;;;;13.07;6.93;;;;;;;19.21;83.58;101367.88;5070419;28;20090;-46
2023/08/22 10:44:40;;;;;;;13.77;7.13;;;;;;;19.22;83.81;101374.97;5078065;28;20031;-43
2023/08/22 10:47:17;;;;;;;13.60;7.28;;;;;;;19.18;84.29;101368.38;5092613;28;20124;-43
2023/08/22 10:49:44;;;;;;;15.10;8.00;;;;;;;19.25;83.87;101363.59;5094242;28;20067;-44
2023/08/22 10:52:11;;;;;;;13.05;7.28;;;;;;;19.33;83.45;101365.88;5094242;28;20367;-43
2023/08/22 10:55:05;;;;;;;11.25;6.40;;;;;;;19.21;84.04;101363.28;5093009;28;20055;-44
2023/08/22 10:57:35;;;;;;;13.52;7.15;;;;;;;19.12;84.85;101359.34;5063739;28;20513;-45
2023/08/22 11:00:17;;;;;;;11.70;6.88;;;;;;;19.18;84.52;101358.34;5094434;28;20032;-44
2023/08/22 11:02:44;;;;;;;15.98;7.68;;;;;;;19.22;84.25;101345.13;5077733;28;20546;-43
2023/08/22 11:05:14;;;;;;;9.38;6.30;;;;;;;19.23;84.20;101346.75;5094374;28;20024;-45
2023/08/22 11:07:46;;;;;;;8.65;5.47;;;;;;;19.19;84.39;101345.59;5092905;28;20024;-45
2023/08/22 11:10:18;;;;;;;10.65;5.72;;;;;;;19.18;84.40;101347.50;5094421;28;20417;-45
2023/08/22 11:12:45;;;;;;;12.07;6.90;;;;;;;19.28;83.85;101343.28;5093047;28;20024;-44
2023/08/22 11:15:15;;;;;;;10.30;6.47;;;;;;;19.21;84.04;101340.72;5081104;28;20036;-44
2023/08/22 11:17:43;;;;;;;10.85;5.40;;;;;;;19.21;84.42;101341.59;5077089;28;20025;-43
2023/08/22 11:20:14;;;;;;;8.20;6.05;;;;;;;19.19;84.22;101343.69;5093563;28;20032;-47